Time;durP1;ratioP1;P1;durP2;ratioP2;P2;SDS_P1;SDS_P2;PMS_P1;PMS_P2;Temp;Humidity;BMP_temperature;BMP_pressure;BME280_temperature;BME280_humidity;BME280_pressure;Samples;Min_cycle;Max_cycle;Signal;HPM_P1;HPM_P2
2023/03/15 00:01:25;;;;;;;2.87;1.83;;;10.50;99.90;;;9.03;79.47;98868.63;10246489;28;96930;-89
2023/03/15 00:06:34;;;;;;;1.87;1.47;;;10.40;99.90;;;9.04;79.21;98883.50;10223972;28;96641;-90
2023/03/15 00:11:37;;;;;;;2.37;1.40;;;10.40;99.90;;;9.08;77.26;98882.97;10262482;28;97664;-87
2023/03/15 00:16:42;;;;;;;1.80;1.30;;;10.40;99.90;;;9.09;76.52;98883.78;10256223;28;98246;-89
2023/03/15 00:21:45;;;;;;;2.47;1.30;;;10.50;99.90;;;9.08;75.99;98906.81;10214135;28;96405;-88
2023/03/15 00:26:48;;;;;;;1.63;1.30;;;10.40;99.90;;;9.07;75.33;98901.69;10264700;28;96560;-89
2023/03/15 00:31:51;;;;;;;1.47;1.10;;;10.40;99.90;;;9.04;75.50;98915.31;10248249;28;98764;-87
2023/03/15 00:36:53;;;;;;;1.73;1.10;;;10.40;99.90;;;9.00;74.51;98922.84;10230054;28;96592;-89
2023/03/15 00:41:56;;;;;;;1.83;1.07;;;10.40;99.90;;;8.96;74.48;98926.06;10256258;28;98396;-85
2023/03/15 00:46:59;;;;;;;2.43;1.27;;;10.40;99.90;;;8.91;73.98;98920.50;10236303;28;97283;-85
2023/03/15 00:52:03;;;;;;;1.33;0.93;;;10.30;99.90;;;8.86;73.23;98923.69;10211056;28;97091;-86
2023/03/15 00:57:06;;;;;;;1.77;1.10;;;10.30;99.90;;;8.80;72.85;98916.50;10226241;28;96907;-85
2023/03/15 01:02:10;;;;;;;5.17;2.30;;;10.20;99.90;;;8.75;72.65;98906.47;10231856;28;96567;-85
2023/03/15 01:07:13;;;;;;;2.33;1.27;;;10.10;99.90;;;8.68;72.07;98889.69;10257237;28;96647;-87
2023/03/15 01:12:16;;;;;;;2.30;0.93;;;10.10;99.90;;;8.62;71.88;98895.72;10229131;28;96476;-87
2023/03/15 01:17:20;;;;;;;1.87;0.90;;;10.00;99.90;;;8.57;71.12;98901.56;10250348;28;97482;-86
2023/03/15 01:22:23;;;;;;;1.73;1.00;;;9.90;99.90;;;8.52;71.06;98890.75;10230578;28;96740;-87
2023/03/15 01:27:26;;;;;;;2.30;1.00;;;9.90;99.90;;;8.47;71.39;98901.06;10222515;28;96622;-87
2023/03/15 01:32:29;;;;;;;1.13;0.80;;;9.90;99.90;;;8.44;71.01;98913.84;10245025;28;98407;-86
2023/03/15 01:37:33;;;;;;;2.30;1.10;;;9.80;99.90;;;8.38;71.49;98911.94;10256664;28;97794;-87
2023/03/15 01:43:17;;;;;;;1.37;1.00;;;9.80;99.90;;;8.33;71.17;98902.69;10233858;28;97362;-87
2023/03/15 01:48:25;;;;;;;3.97;1.10;;;9.80;99.90;;;8.27;71.46;98919.31;10223988;28;96478;-89
2023/03/15 01:53:30;;;;;;;2.10;0.90;;;9.70;99.90;;;8.26;71.27;98922.16;10252097;28;96617;-88
2023/03/15 01:58:34;;;;;;;2.57;1.27;;;9.70;99.90;;;8.23;71.38;98918.06;10250219;28;96838;-88
2023/03/15 02:03:45;;;;;;;2.40;0.90;;;9.70;99.90;;;8.19;71.19;98919.41;10235581;28;96563;-88
2023/03/15 02:09:00;;;;;;;2.17;1.10;;;9.60;99.90;;;8.15;71.49;98915.47;10210275;28;96574;-88
2023/03/15 02:14:05;;;;;;;1.97;0.97;;;9.60;99.90;;;8.12;71.53;98902.63;10225300;28;96683;-87
2023/03/15 02:19:24;;;;;;;0.97;0.70;;;9.60;99.90;;;8.06;71.39;98895.44;10233596;28;97321;-87
2023/03/15 02:25:14;;;;;;;1.83;1.00;;;9.50;99.90;;;8.01;71.83;98897.81;10238474;28;97399;-87
2023/03/15 02:30:17;;;;;;;1.93;1.00;;;9.50;99.90;;;7.98;72.14;98909.59;10240679;28;97183;-88
2023/03/15 02:35:29;;;;;;;2.07;0.97;;;9.40;99.90;;;7.94;72.25;98904.84;10247352;28;96833;-88
2023/03/15 02:40:32;;;;;;;2.33;1.25;;;9.40;99.90;;;7.88;72.91;98901.09;10220780;28;96608;-86
2023/03/15 02:45:37;;;;;;;2.10;1.03;;;9.30;99.90;;;7.87;73.05;98903.94;10238433;28;96644;-89
2023/03/15 02:50:40;;;;;;;2.50;1.40;;;9.30;99.90;;;7.87;73.17;98901.28;10258176;28;96565;-88
2023/03/15 02:55:42;;;;;;;1.93;1.03;;;9.30;99.90;;;7.85;73.61;98890.03;10240839;28;98477;-87
2023/03/15 03:00:45;;;;;;;1.77;1.10;;;9.30;99.90;;;7.87;73.50;98883.59;10267644;28;98540;-89
2023/03/15 03:05:48;;;;;;;2.63;1.20;;;9.30;99.90;;;7.92;73.27;98883.03;10254366;28;96537;-86
2023/03/15 03:10:51;;;;;;;1.77;1.30;;;9.30;99.90;;;7.95;72.72;98887.94;10244854;28;96582;-90
2023/03/15 03:15:57;;;;;;;2.30;1.00;;;9.30;99.90;;;7.97;71.92;98875.34;10263755;28;96552;-88
2023/03/15 03:21:04;;;;;;;2.13;1.10;;;9.30;99.90;;;7.95;70.22;98887.94;10266032;28;96512;-88
2023/03/15 03:26:17;;;;;;;2.90;1.00;;;9.40;99.90;;;7.95;69.36;98886.13;10208580;28;96538;-89
2023/03/15 03:31:24;;;;;;;1.33;1.00;;;9.30;99.60;;;7.93;68.96;98882.84;10244087;28;96549;-88
2023/03/15 03:36:27;;;;;;;1.00;0.80;;;9.30;99.40;;;7.90;68.50;98891.13;10241048;28;96678;-87
2023/03/15 03:41:30;;;;;;;1.20;0.90;;;9.30;99.00;;;7.89;67.56;98893.97;10236097;28;98796;-87
2023/03/15 03:46:35;;;;;;;1.50;0.90;;;9.30;98.30;;;7.88;67.72;98890.50;10248951;28;97651;-87
2023/03/15 03:51:38;;;;;;;1.63;0.80;;;9.30;98.50;;;7.87;67.15;98888.06;10278766;28;96550;-88
2023/03/15 03:56:41;;;;;;;1.87;0.70;;;9.30;98.20;;;7.82;66.15;98871.91;10209115;28;1390386;-88
2023/03/15 04:01:45;;;;;;;1.00;0.80;;;9.20;97.40;;;7.77;65.93;98865.34;10245543;28;97288;-89
2023/03/15 04:06:49;;;;;;;1.10;0.90;;;9.20;97.30;;;7.75;65.58;98883.22;10236692;28;96798;-90
2023/03/15 04:11:52;;;;;;;2.47;0.63;;;9.10;96.90;;;7.75;65.31;98885.84;10239152;28;96634;-90
2023/03/15 04:16:55;;;;;;;0.80;0.60;;;9.20;96.70;;;7.76;64.93;98868.97;10248706;28;98353;-91
2023/03/15 04:22:05;;;;;;;1.20;0.60;;;9.20;96.50;;;7.74;65.36;98886.03;10296390;28;96402;-89
2023/03/15 04:27:13;;;;;;;1.97;0.77;;;9.20;96.60;;;7.73;65.46;98894.97;10257268;28;97486;-90
2023/03/15 04:32:16;;;;;;;1.00;0.70;;;9.10;96.40;;;7.66;65.45;98900.16;10252736;28;97375;-90
2023/03/15 04:37:19;;;;;;;1.17;0.60;;;9.10;96.50;;;7.53;65.42;98907.88;10270185;28;96961;-90
2023/03/15 04:42:24;;;;;;;1.23;0.80;;;9.00;96.30;;;7.40;65.87;98927.00;10224956;28;96765;-90
2023/03/15 04:47:27;;;;;;;0.90;0.80;;;8.90;96.50;;;7.25;65.86;98939.34;10263303;28;96627;-91
2023/03/15 04:52:31;;;;;;;1.10;1.00;;;8.70;96.60;;;7.08;66.27;98948.41;10253349;28;96522;-90
2023/03/15 04:57:34;;;;;;;1.13;0.83;;;8.60;96.60;;;6.94;67.01;98960.53;10213587;28;96540;-90
2023/03/15 05:02:40;;;;;;;2.07;1.00;;;8.50;96.90;;;6.82;67.44;98970.66;10263499;28;97188;-90
2023/03/15 05:07:43;;;;;;;1.37;1.20;;;8.30;97.10;;;6.71;67.57;98977.16;10271334;28;96634;-91
2023/03/15 05:12:46;;;;;;;1.57;1.00;;;8.20;97.10;;;6.62;68.20;98978.19;10269188;28;96638;-90
2023/03/15 05:17:53;;;;;;;1.90;1.30;;;8.10;97.60;;;6.51;68.67;98972.47;10250302;28;97516;-90
2023/03/15 05:22:58;;;;;;;2.03;1.50;;;8.00;97.80;;;6.41;69.31;98967.41;10269452;28;96730;-91
2023/03/15 05:28:03;;;;;;;3.50;2.10;;;7.90;98.00;;;6.28;69.80;98965.31;10262191;28;96712;-89
2023/03/15 05:33:06;;;;;;;3.77;2.50;;;7.80;98.40;;;6.20;70.37;98948.69;10237688;28;97484;-89
2023/03/15 05:38:13;;;;;;;3.37;2.30;;;7.70;98.70;;;6.07;71.04;98936.03;10273485;28;98784;-92
2023/03/15 05:43:16;;;;;;;2.07;1.80;;;7.60;99.00;;;5.97;71.72;98941.50;10241074;28;96559;-92
2023/03/15 05:48:19;;;;;;;3.00;2.10;;;7.50;99.30;;;5.89;72.22;98938.88;10226130;28;98361;-88
2023/03/15 05:53:22;;;;;;;2.60;2.20;;;7.40;99.60;;;5.87;72.97;98930.28;10249655;28;96509;-89
2023/03/15 05:58:25;;;;;;;2.83;2.23;;;7.40;99.90;;;5.89;73.16;98941.50;10239046;28;97239;-90
2023/03/15 06:03:33;;;;;;;2.93;2.63;;;7.40;99.90;;;5.99;73.46;98970.31;10227069;28;96547;-90
2023/03/15 06:08:36;;;;;;;2.50;2.17;;;7.50;99.90;;;6.09;73.35;98976.25;10250055;28;96493;-92
2023/03/15 06:13:39;;;;;;;2.83;2.57;;;7.60;99.90;;;6.20;73.28;98978.53;10233622;28;96655;-92
2023/03/15 06:18:42;;;;;;;4.70;3.53;;;7.70;99.90;;;6.28;73.35;98988.22;10261282;28;96669;-93
2023/03/15 06:23:45;;;;;;;4.30;3.50;;;7.70;99.90;;;6.31;72.74;98996.63;10227445;28;98592;-92
2023/03/15 06:28:48;;;;;;;5.70;3.87;;;7.80;99.90;;;6.37;72.60;98993.31;10277753;28;96910;-89
2023/03/15 06:33:51;;;;;;;4.57;3.80;;;7.80;99.90;;;6.40;72.10;99010.63;10237464;28;96706;-91
2023/03/15 06:38:54;;;;;;;4.53;3.30;;;7.90;99.90;;;6.41;71.42;99014.88;10246309;28;96634;-92
2023/03/15 06:43:57;;;;;;;5.10;3.70;;;7.90;99.80;;;6.43;71.15;99015.56;10214918;28;97274;-93
2023/03/15 06:49:00;;;;;;;5.37;3.60;;;7.90;99.60;;;6.44;70.86;99033.84;10252201;28;96718;-92
2023/03/15 06:54:03;;;;;;;4.97;2.93;;;8.00;99.40;;;6.45;70.27;99032.03;10234486;28;96509;-92
2023/03/15 06:59:06;;;;;;;4.63;3.50;;;8.00;99.20;;;6.51;70.11;99047.19;10233847;28;96582;-92
2023/03/15 07:04:09;;;;;;;4.57;3.10;;;8.00;99.10;;;6.51;69.25;99055.13;10242693;28;96635;-90
2023/03/15 07:09:12;;;;;;;6.67;3.50;;;8.00;98.20;;;6.48;69.26;99059.91;10245459;28;97466;-92
2023/03/15 07:14:15;;;;;;;3.43;2.97;;;8.00;98.50;;;6.50;68.48;99071.94;10275304;28;97092;-92
2023/03/15 07:19:18;;;;;;;5.50;3.20;;;8.00;98.10;;;6.57;68.30;99075.56;10250763;28;97365;-89
2023/03/15 07:24:22;;;;;;;5.30;2.70;;;8.10;97.90;;;6.59;66.54;99065.63;10258042;28;96644;-94
2023/03/15 07:29:25;;;;;;;3.43;2.50;;;8.10;96.90;;;6.63;65.97;99063.50;10243678;28;97217;-91
2023/03/15 07:34:28;;;;;;;3.30;2.37;;;8.10;96.70;;;6.61;65.01;99049.66;10269155;28;96572;-92
2023/03/15 07:39:31;;;;;;;5.23;2.63;;;8.10;95.80;;;6.55;64.00;99068.81;10208445;28;96550;-91
2023/03/15 07:44:34;;;;;;;3.33;1.97;;;8.00;95.20;;;6.51;64.73;99076.22;10236820;28;98586;-91
2023/03/15 07:49:37;;;;;;;6.57;3.03;;;8.00;95.50;;;6.48;64.01;99079.22;10262660;28;97594;-91
2023/03/15 07:54:40;;;;;;;7.50;2.27;;;7.90;95.00;;;6.45;63.36;99071.63;10253647;28;98670;-90
2023/03/15 07:59:43;;;;;;;3.33;1.77;;;7.90;94.60;;;6.44;62.87;99078.72;10213257;28;96867;-93
2023/03/15 08:04:47;;;;;;;2.97;1.83;;;7.90;94.00;;;6.46;62.18;99075.09;10246680;28;96718;-93
2023/03/15 08:09:50;;;;;;;5.93;3.17;;;7.90;93.50;;;6.43;62.33;99077.09;10233858;28;96598;-91
2023/03/15 08:14:53;;;;;;;11.50;4.80;;;7.90;93.80;;;6.46;62.06;99093.56;10247205;28;98556;-92
2023/03/15 08:19:56;;;;;;;6.27;2.73;;;7.90;93.50;;;6.50;61.84;99089.59;10257350;28;96916;-92
2023/03/15 08:24:59;;;;;;;34.07;30.33;;;7.90;93.50;;;6.52;61.81;99101.63;10217377;28;96740;-94
2023/03/15 08:30:06;;;;;;;6.07;2.00;;;8.00;93.40;;;6.56;61.13;99115.31;10277774;28;96562;-88
2023/03/15 08:35:11;;;;;;;2.80;1.70;;;8.00;93.10;;;6.53;60.46;99123.56;10256469;28;96543;-88
2023/03/15 08:40:25;;;;;;;4.13;1.70;;;8.00;92.50;;;6.50;61.14;99122.09;10210566;28;96859;-92
2023/03/15 08:45:28;;;;;;;2.77;1.50;;;8.00;92.70;;;6.46;60.90;99148.97;10247040;28;96834;-90
2023/03/15 08:50:32;;;;;;;6.87;2.67;;;7.90;92.60;;;6.41;60.93;99154.75;10237425;28;96558;-94
2023/03/15 08:55:36;;;;;;;3.03;2.10;;;7.90;92.40;;;6.37;60.41;99161.38;10256868;28;96753;-91
2023/03/15 09:00:39;;;;;;;4.77;1.67;;;7.90;92.00;;;6.31;60.12;99180.50;10234178;28;96728;-91
2023/03/15 09:05:43;;;;;;;6.67;3.80;;;7.80;91.60;;;6.23;59.85;99193.69;10236602;28;96541;-92
2023/03/15 09:10:46;;;;;;;6.27;2.93;;;7.70;91.50;;;6.19;59.07;99213.47;10250979;28;97045;-90
2023/03/15 09:15:53;;;;;;;5.37;1.83;;;7.70;91.20;;;6.16;59.22;99228.63;10270513;28;96799;-89
2023/03/15 09:20:56;;;;;;;4.83;2.30;;;7.70;91.00;;;6.17;59.49;99246.09;10243255;28;96801;-92
2023/03/15 09:26:00;;;;;;;3.80;2.33;;;7.70;91.10;;;6.14;59.24;99256.16;10229924;28;96487;-93
2023/03/15 09:31:05;;;;;;;6.30;2.47;;;7.60;90.90;;;6.14;58.71;99264.91;10251721;28;96802;-91
2023/03/15 09:36:08;;;;;;;5.90;2.10;;;7.60;90.50;;;6.14;58.27;99267.53;10257650;28;96990;-91
2023/03/15 09:41:42;;;;;;;8.57;4.70;;;7.60;90.40;;;6.24;58.44;99271.81;10268042;28;96772;-95
2023/03/15 09:47:35;;;;;;;5.07;2.70;;;7.70;90.40;;;6.33;57.51;99291.97;10230273;28;96922;-91
2023/03/15 09:53:26;;;;;;;4.47;2.13;;;7.80;90.30;;;6.39;56.78;99286.88;10251928;28;98674;-93
2023/03/15 09:58:31;;;;;;;5.63;2.10;;;7.80;88.20;;;6.41;57.09;99284.88;10197028;28;98472;-93
2023/03/15 10:03:45;;;;;;;5.40;2.70;;;7.90;88.80;;;6.53;56.73;99280.09;10221207;28;96897;-93
2023/03/15 10:08:55;;;;;;;12.20;4.53;;;8.00;88.30;;;6.64;55.98;99269.22;10245618;28;96517;-91
2023/03/15 10:14:29;;;;;;;10.53;3.10;;;8.10;87.00;;;6.70;55.52;99273.84;10214087;28;96544;-91
2023/03/15 10:19:44;;;;;;;7.17;2.80;;;8.10;86.10;;;6.73;54.68;99283.28;10227125;28;97326;-89
2023/03/15 10:24:53;;;;;;;7.40;3.43;;;8.20;85.00;;;6.73;54.72;99280.63;10250622;28;97707;-93
2023/03/15 10:29:59;;;;;;;5.97;2.53;;;8.10;85.60;;;6.66;54.86;99293.66;10232676;28;96966;-93
2023/03/15 10:35:16;;;;;;;5.70;3.07;;;8.10;84.80;;;6.72;55.09;99297.47;10251691;28;97420;-93
2023/03/15 10:40:58;;;;;;;7.47;3.17;;;8.10;85.50;;;6.79;54.97;99289.69;10222867;28;97433;-90
2023/03/15 10:46:10;;;;;;;7.50;3.33;;;8.20;84.50;;;6.80;54.53;99296.63;10164506;28;96747;-94
2023/03/15 10:51:30;;;;;;;6.40;3.57;;;8.20;84.00;;;6.92;54.40;99308.50;10231151;28;96719;-95
2023/03/15 10:56:55;;;;;;;7.47;3.80;;;8.30;84.70;;;6.98;54.47;99316.59;10234967;28;96537;-90
2023/03/15 11:02:18;;;;;;;11.67;5.37;;;8.40;83.10;;;6.96;54.11;99315.94;10242201;28;98726;-94
2023/03/15 11:07:22;;;;;;;9.60;4.57;;;8.30;83.00;;;7.06;54.09;99315.75;10253932;28;96524;-92
2023/03/15 11:12:30;;;;;;;13.20;6.10;;;8.50;83.80;;;7.20;53.82;99328.31;10253749;28;96487;-94
2023/03/15 11:17:43;;;;;;;14.13;5.80;;;8.60;83.00;;;7.30;52.91;99325.47;10205444;28;97602;-92
2023/03/15 11:22:46;;;;;;;13.00;5.43;;;8.60;81.80;;;7.41;52.71;99325.09;10254601;28;98355;-94
2023/03/15 11:27:52;;;;;;;8.73;4.40;;;8.70;81.70;;;7.55;52.34;99334.16;10254773;28;98348;-93
2023/03/15 11:33:03;;;;;;;9.07;3.90;;;8.80;81.10;;;7.71;52.45;99335.94;10216107;28;98419;-93
2023/03/15 11:38:36;;;;;;;7.28;4.05;;;9.00;80.90;;;7.94;51.99;99338.66;10239151;28;96498;-92
2023/03/15 11:44:08;;;;;;;9.97;4.50;;;9.20;80.20;;;8.15;51.49;99346.00;10239267;28;98268;-93
2023/03/15 11:49:50;;;;;;;11.00;5.13;;;9.40;79.10;;;8.32;50.67;99340.44;10249393;28;96748;-90
2023/03/15 11:55:00;;;;;;;8.73;3.90;;;9.60;79.60;;;8.41;48.31;99353.69;10241283;28;98419;-90
2023/03/15 12:00:27;;;;;;;7.13;3.97;;;9.70;74.00;;;8.34;48.67;99342.94;10235788;28;96735;-92
2023/03/15 12:05:51;;;;;;;6.63;4.00;;;9.70;74.40;;;8.35;48.01;99349.06;10250268;28;97135;-93
2023/03/15 12:10:55;;;;;;;4.97;3.20;;;9.70;73.80;;;8.48;47.66;99365.22;10271252;28;96678;-90
2023/03/15 12:15:58;;;;;;;5.83;3.30;;;9.80;72.90;;;8.51;47.14;99359.56;10230044;28;98284;-91
2023/03/15 12:21:11;;;;;;;6.17;2.87;;;9.90;72.20;;;8.60;46.36;99363.81;10259593;28;97350;-91
2023/03/15 12:26:48;;;;;;;6.13;2.90;;;9.90;70.40;;;8.57;45.25;99380.06;10245004;28;98492;-90
2023/03/15 12:32:12;;;;;;;7.57;2.43;;;9.90;68.20;;;8.55;45.03;99368.81;10226191;28;96660;-94
2023/03/15 12:37:36;;;;;;;5.97;2.57;;;9.90;67.90;;;8.69;45.08;99377.81;10270869;28;96521;-94
2023/03/15 12:42:39;;;;;;;6.17;2.37;;;10.00;67.80;;;8.83;43.90;99380.56;10255298;28;96600;-90
2023/03/15 12:47:48;;;;;;;6.07;2.50;;;10.20;66.20;;;8.97;43.51;99375.47;10277920;28;96745;-90
2023/03/15 12:52:52;;;;;;;5.53;2.20;;;10.30;65.70;;;9.04;42.69;99381.72;10228552;28;98699;-90
2023/03/15 12:57:58;;;;;;;4.37;2.10;;;10.40;64.40;;;9.24;41.88;99377.59;10258499;28;96575;-90
2023/03/15 13:03:17;;;;;;;4.27;1.80;;;10.60;63.00;;;9.27;40.77;99387.81;10257112;28;96608;-91
2023/03/15 13:08:23;;;;;;;5.17;2.93;;;10.70;61.00;;;9.31;40.79;99391.78;10253326;28;96605;-90
2023/03/15 13:13:53;;;;;;;3.93;2.40;;;10.70;60.70;;;9.35;39.65;99403.66;10243337;28;96900;-89
2023/03/15 13:19:18;;;;;;;8.83;2.50;;;10.80;59.00;;;9.14;39.93;99406.16;10241900;28;96543;-89
2023/03/15 13:24:56;;;;;;;5.80;2.53;;;10.60;58.80;;;9.08;39.73;99409.53;10267731;28;98599;-87
2023/03/15 13:30:47;;;;;;;6.90;2.70;;;10.50;58.30;;;8.97;39.42;99421.34;10191703;28;96552;-89
2023/03/15 13:36:14;;;;;;;3.83;1.90;;;10.40;57.80;;;8.85;39.90;99420.94;10218305;28;96442;-89
2023/03/15 13:41:30;;;;;;;3.53;1.70;;;10.30;58.30;;;8.77;39.92;99441.38;10213812;28;96586;-88
2023/03/15 13:46:33;;;;;;;5.00;2.63;;;10.20;58.30;;;8.60;39.94;99447.75;10235351;28;96563;-92
2023/03/15 13:51:38;;;;;;;3.53;1.37;;;10.00;58.20;;;8.51;39.30;99454.88;10245836;28;97883;-92
2023/03/15 13:57:21;;;;;;;4.30;1.67;;;9.90;57.70;;;8.30;39.12;99458.94;10244103;28;98973;-89
2023/03/15 14:02:46;;;;;;;4.43;1.97;;;9.70;56.90;;;8.19;39.38;99467.22;10121824;28;96565;-91
2023/03/15 14:08:05;;;;;;;6.67;1.90;;;9.60;57.40;;;8.05;39.81;99468.78;10224497;28;96649;-91
2023/03/15 14:13:32;;;;;;;11.07;4.50;;;9.50;57.60;;;7.97;40.03;99471.41;10237381;28;96991;-91
2023/03/15 14:18:38;;;;;;;6.43;2.73;;;9.40;58.10;;;7.85;40.24;99482.50;10248629;28;96629;-91
2023/03/15 14:23:48;;;;;;;5.93;1.90;;;9.30;58.40;;;7.83;40.30;99497.75;10232860;28;98483;-88
2023/03/15 14:29:28;;;;;;;8.27;2.97;;;9.30;58.20;;;7.86;40.55;99497.41;10230357;28;97006;-91
2023/03/15 14:34:42;;;;;;;4.40;1.97;;;9.30;58.30;;;7.70;40.44;99501.72;10237234;28;96539;-90
2023/03/15 14:39:45;;;;;;;7.33;1.80;;;9.10;58.00;;;7.44;40.49;99509.00;10245079;28;98365;-92
2023/03/15 14:44:49;;;;;;;4.33;2.00;;;8.90;58.40;;;7.32;41.34;99508.50;10262266;28;97239;-95
2023/03/15 14:49:53;;;;;;;7.20;2.70;;;8.80;58.80;;;7.25;41.29;99507.47;10271666;28;98175;-93
2023/03/15 14:54:57;;;;;;;5.60;2.20;;;8.70;58.80;;;7.14;41.56;99519.22;10240699;28;98017;-93
2023/03/15 15:00:02;;;;;;;18.77;7.77;;;8.60;59.10;;;7.10;42.12;99512.59;10252301;28;96893;-93
2023/03/15 15:05:28;;;;;;;7.80;3.83;;;8.50;59.50;;;7.10;41.91;99527.63;10256105;28;97680;-94
2023/03/15 15:10:33;;;;;;;9.73;3.93;;;8.50;59.30;;;7.08;41.88;99540.16;10257725;28;96779;-91
2023/03/15 15:15:40;;;;;;;9.53;3.50;;;8.50;59.40;;;7.02;41.61;99541.63;10241962;28;97852;-93
2023/03/15 15:21:01;;;;;;;8.17;3.13;;;8.50;58.70;;;6.98;40.85;99545.56;10243960;28;97394;-92
2023/03/15 15:26:25;;;;;;;7.67;3.30;;;8.40;57.90;;;6.89;40.54;99567.66;10250215;28;99048;-90
2023/03/15 15:31:32;;;;;;;7.03;2.70;;;8.30;57.70;;;6.84;40.62;99572.59;10286995;28;96679;-90
2023/03/15 15:36:42;;;;;;;21.00;10.13;;;8.30;57.60;;;6.83;40.86;99594.69;10276896;28;98247;-91
2023/03/15 15:41:45;;;;;;;6.20;2.80;;;8.30;58.00;;;6.77;40.14;99584.78;10257903;28;97478;-91
2023/03/15 15:46:49;;;;;;;5.57;2.30;;;8.30;57.30;;;6.81;40.29;99594.03;10263094;28;97441;-94
2023/03/15 15:51:52;;;;;;;5.17;2.23;;;8.30;57.20;;;6.74;39.24;99614.97;10260787;28;97876;-90
2023/03/15 15:56:57;;;;;;;4.93;2.00;;;8.20;56.10;;;6.74;39.25;99624.72;10238225;28;98209;-90
2023/03/15 16:02:00;;;;;;;6.77;2.37;;;8.20;55.90;;;6.69;39.13;99622.53;10235802;28;96558;-88
2023/03/15 16:07:06;;;;;;;6.77;2.03;;;8.10;55.70;;;6.62;38.64;99627.63;10238776;28;97174;-88
2023/03/15 16:12:12;;;;;;;8.80;3.90;;;8.10;55.00;;;6.57;38.89;99626.44;10221186;28;96625;-87
2023/03/15 16:17:22;;;;;;;5.07;2.07;;;8.00;55.60;;;6.47;38.85;99647.63;10266455;28;96747;-92
2023/03/15 16:22:25;;;;;;;7.97;2.27;;;7.90;55.40;;;6.36;38.78;99656.66;10255269;28;97067;-91
2023/03/15 16:27:29;;;;;;;5.93;2.10;;;7.90;55.30;;;6.23;38.75;99658.00;10247727;28;96802;-90
2023/03/15 16:32:33;;;;;;;5.13;2.20;;;7.70;55.00;;;6.17;38.83;99673.47;10206160;28;96797;-92
2023/03/15 16:37:46;;;;;;;5.80;2.07;;;7.70;55.00;;;6.11;38.71;99668.81;10249254;28;96697;-93
2023/03/15 16:42:50;;;;;;;4.30;1.73;;;7.60;55.10;;;6.02;38.44;99684.72;10253631;28;98587;-94
2023/03/15 16:47:58;;;;;;;7.83;3.20;;;7.50;54.90;;;5.93;39.64;99686.44;10259280;28;96531;-95
2023/03/15 16:53:06;;;;;;;4.27;1.80;;;7.50;55.70;;;5.77;40.19;99691.56;10257554;28;96545;-93
2023/03/15 16:58:19;;;;;;;5.43;2.03;;;7.30;56.20;;;5.64;40.47;99713.84;10258127;28;96603;-92
2023/03/15 17:03:22;;;;;;;6.23;3.10;;;7.20;56.70;;;5.53;41.36;99724.56;10256908;28;96872;-93
2023/03/15 17:08:31;;;;;;;5.90;2.47;;;7.10;57.30;;;5.42;41.23;99739.75;10230594;28;96564;-92
2023/03/15 17:13:39;;;;;;;7.00;3.00;;;7.00;57.50;;;5.30;41.53;99736.47;10278990;28;96609;-91
2023/03/15 17:18:43;;;;;;;15.20;5.20;;;6.90;57.60;;;5.22;41.64;99745.09;10262810;28;97211;-94
2023/03/15 17:23:49;;;;;;;8.20;3.10;;;6.80;57.60;;;5.19;41.63;99755.09;10267010;28;96520;-95
2023/03/15 17:28:53;;;;;;;17.33;7.47;;;6.70;57.80;;;5.06;41.61;99750.97;10251610;28;96529;-93
2023/03/15 17:33:57;;;;;;;24.97;9.83;;;6.70;57.80;;;4.98;41.97;99755.31;10252069;28;96704;-92
2023/03/15 17:39:01;;;;;;;20.00;7.97;;;6.60;57.90;;;4.89;42.15;99762.25;10267968;28;96537;-95
2023/03/15 17:44:09;;;;;;;11.50;4.90;;;6.50;58.00;;;4.78;42.35;99768.50;10240606;28;96524;-91
2023/03/15 17:49:14;;;;;;;7.67;3.00;;;6.40;58.30;;;4.75;42.40;99789.84;10280803;28;97470;-92
2023/03/15 17:54:19;;;;;;;8.50;3.87;;;6.30;58.20;;;4.66;42.48;99792.47;10257851;28;96545;-92
2023/03/15 17:59:23;;;;;;;9.60;3.00;;;6.30;58.20;;;4.65;42.56;99817.13;10266002;28;96554;-91
2023/03/15 18:04:29;;;;;;;8.00;2.83;;;6.20;58.60;;;4.63;42.27;99822.53;10268159;28;96889;-92
2023/03/15 18:09:33;;;;;;;5.70;2.47;;;6.20;58.30;;;4.66;42.53;99834.59;10238826;28;97109;-84
2023/03/15 18:14:37;;;;;;;7.43;2.60;;;6.20;58.30;;;4.66;42.50;99830.16;10243728;28;96561;-85
2023/03/15 18:19:40;;;;;;;9.27;2.77;;;6.20;58.20;;;4.67;42.14;99837.06;10236558;28;96715;-85
2023/03/15 18:24:43;;;;;;;7.97;2.53;;;6.20;58.20;;;4.65;42.33;99846.09;10238092;28;98222;-84
2023/03/15 18:29:51;;;;;;;4.60;2.20;;;6.20;58.00;;;4.67;41.83;99849.41;10251356;28;97386;-89
2023/03/15 18:34:55;;;;;;;7.83;2.87;;;6.20;57.70;;;4.68;41.67;99857.19;10230163;28;98264;-89
2023/03/15 18:39:58;;;;;;;7.13;2.57;;;6.20;57.70;;;4.68;41.78;99861.59;10272874;28;96514;-88
2023/03/15 18:45:01;;;;;;;6.10;2.57;;;6.30;57.50;;;4.70;41.75;99872.81;10219319;28;97445;-91
2023/03/15 18:50:04;;;;;;;5.57;2.50;;;6.30;57.80;;;4.71;41.42;99877.94;10274942;28;96758;-87
2023/03/15 18:55:15;;;;;;;7.87;2.50;;;6.20;57.20;;;4.71;41.67;99879.75;10242624;28;97414;-88
2023/03/15 19:00:31;;;;;;;5.07;2.40;;;6.20;57.40;;;4.69;40.60;99879.91;10189738;28;96686;-90
2023/03/15 19:05:36;;;;;;;6.50;2.53;;;6.20;56.70;;;4.65;41.04;99881.13;10208131;28;96713;-88
2023/03/15 19:10:41;;;;;;;5.73;2.23;;;6.20;56.90;;;4.59;40.86;99888.75;10194458;28;96612;-92
2023/03/15 19:15:49;;;;;;;6.20;2.80;;;6.10;56.40;;;4.54;40.74;99895.25;10224080;28;96469;-91
2023/03/15 19:20:55;;;;;;;6.63;3.00;;;6.10;56.50;;;4.41;40.94;99896.47;10191216;28;96623;-91
2023/03/15 19:25:58;;;;;;;5.70;2.93;;;6.00;56.50;;;4.30;41.34;99894.78;10189819;28;98773;-91
2023/03/15 19:31:02;;;;;;;6.40;2.60;;;5.90;56.70;;;4.19;40.78;99894.91;10203567;28;96634;-90
2023/03/15 19:36:07;;;;;;;5.40;2.37;;;5.80;56.30;;;4.20;40.51;99913.19;10230711;28;97189;-92
2023/03/15 19:41:10;;;;;;;8.37;2.87;;;5.80;55.70;;;4.16;40.60;99918.84;10228821;28;96666;-91
2023/03/15 19:46:16;;;;;;;5.33;2.50;;;5.70;55.80;;;4.12;40.66;99923.53;10223674;28;96927;-91
2023/03/15 19:51:22;;;;;;;9.77;4.27;;;5.70;56.50;;;4.03;41.61;99942.75;10230438;28;96759;-91
2023/03/15 19:56:25;;;;;;;8.83;3.73;;;5.60;57.00;;;3.95;41.53;99945.19;10216335;28;96658;-90
2023/03/15 20:01:28;;;;;;;8.00;3.23;;;5.60;57.40;;;3.87;42.41;99956.34;10247158;28;97277;-92
2023/03/15 20:06:31;;;;;;;8.20;3.80;;;5.50;57.50;;;3.82;42.36;99960.34;10258469;28;96589;-87
2023/03/15 20:11:34;;;;;;;6.50;2.63;;;5.50;57.90;;;3.77;42.66;99968.59;10266400;28;96662;-88
2023/03/15 20:16:37;;;;;;;8.97;3.00;;;5.40;58.10;;;3.77;43.15;99979.13;10260267;28;97238;-84
2023/03/15 20:21:42;;;;;;;10.13;4.37;;;5.40;58.60;;;3.81;43.32;99987.59;10264864;28;97849;-84
2023/03/15 20:26:45;;;;;;;7.80;3.77;;;5.40;58.90;;;3.84;43.71;99975.03;10234338;28;96674;-86
2023/03/15 20:31:49;;;;;;;7.43;3.10;;;5.40;59.30;;;3.85;44.08;99984.59;10243840;28;96941;-85
2023/03/15 20:36:53;;;;;;;8.23;3.33;;;5.40;59.50;;;3.89;43.99;99999.13;10257108;28;96846;-86
2023/03/15 20:41:55;;;;;;;7.47;3.17;;;5.50;59.60;;;3.93;44.68;99992.63;10252821;28;96595;-86
2023/03/15 20:46:59;;;;;;;5.00;2.67;;;5.50;60.20;;;3.96;44.83;99997.66;10234317;28;98195;-86
2023/03/15 20:52:03;;;;;;;8.40;3.23;;;5.50;60.70;;;4.01;45.11;100002.50;10259488;28;96527;-87
2023/03/15 20:57:07;;;;;;;7.37;2.87;;;5.60;61.20;;;4.03;45.57;100001.41;10246172;28;96777;-86
2023/03/15 21:02:10;;;;;;;6.63;2.73;;;5.60;61.50;;;4.05;45.54;100000.44;10270315;28;96618;-86
2023/03/15 21:07:13;;;;;;;5.73;2.50;;;5.60;62.50;;;4.05;46.07;100005.72;10277868;28;96465;-86
2023/03/15 21:12:18;;;;;;;7.37;3.00;;;5.60;62.20;;;4.07;46.06;100006.41;10242409;28;96617;-85
2023/03/15 21:17:21;;;;;;;8.07;3.27;;;5.60;62.20;;;4.07;46.29;100009.88;10221924;28;98330;-86
2023/03/15 21:22:24;;;;;;;6.33;2.90;;;5.60;62.50;;;4.05;46.58;100009.16;10211857;28;97842;-85
2023/03/15 21:27:27;;;;;;;5.20;2.80;;;5.60;62.90;;;4.02;46.73;100004.19;10233449;28;96639;-85
2023/03/15 21:32:30;;;;;;;8.70;3.07;;;5.60;62.80;;;4.00;46.64;99993.78;10250668;28;96636;-85
2023/03/15 21:37:33;;;;;;;7.53;2.57;;;5.60;62.90;;;3.98;46.92;100000.97;10261984;28;96618;-86
2023/03/15 21:42:37;;;;;;;7.17;3.00;;;5.50;63.10;;;3.94;46.94;99989.03;10220206;28;96755;-85
2023/03/15 21:47:40;;;;;;;5.57;2.90;;;5.50;63.20;;;3.93;46.62;99987.38;10250757;28;98731;-86